sensor_id;sensor_type;location;lat;lon;timestamp;temperature;humidity
12053;DHT22;6087;48.982;12.064;2023-02-24T00:01:13;9.30;99.90
12053;DHT22;6087;48.982;12.064;2023-02-24T00:03:50;9.30;99.90
12053;DHT22;6087;48.982;12.064;2023-02-24T00:06:17;9.30;99.90
12053;DHT22;6087;48.982;12.064;2023-02-24T00:08:44;9.30;99.90
12053;DHT22;6087;48.982;12.064;2023-02-24T00:11:16;9.30;99.90
12053;DHT22;6087;48.982;12.064;2023-02-24T00:13:44;9.30;99.90
12053;DHT22;6087;48.982;12.064;2023-02-24T00:16:15;9.20;99.90
12053;DHT22;6087;48.982;12.064;2023-02-24T00:18:43;9.20;99.90
12053;DHT22;6087;48.982;12.064;2023-02-24T00:21:12;9.00;99.90
12053;DHT22;6087;48.982;12.064;2023-02-24T00:23:41;8.90;99.90
12053;DHT22;6087;48.982;12.064;2023-02-24T00:26:10;8.90;99.90
12053;DHT22;6087;48.982;12.064;2023-02-24T00:28:38;8.90;99.90
12053;DHT22;6087;48.982;12.064;2023-02-24T00:31:05;8.90;99.90
12053;DHT22;6087;48.982;12.064;2023-02-24T00:33:34;8.80;99.90
12053;DHT22;6087;48.982;12.064;2023-02-24T00:36:06;8.80;99.90
12053;DHT22;6087;48.982;12.064;2023-02-24T00:38:34;8.80;99.90
12053;DHT22;6087;48.982;12.064;2023-02-24T00:41:07;8.70;99.90
12053;DHT22;6087;48.982;12.064;2023-02-24T00:43:37;8.70;99.90
12053;DHT22;6087;48.982;12.064;2023-02-24T00:46:04;8.60;99.90
12053;DHT22;6087;48.982;12.064;2023-02-24T00:48:38;8.60;99.90
12053;DHT22;6087;48.982;12.064;2023-02-24T00:51:07;8.60;99.90
12053;DHT22;6087;48.982;12.064;2023-02-24T00:53:35;8.60;99.90
12053;DHT22;6087;48.982;12.064;2023-02-24T00:56:03;8.60;99.90
12053;DHT22;6087;48.982;12.064;2023-02-24T00:58:32;8.70;99.90
12053;DHT22;6087;48.982;12.064;2023-02-24T01:00:59;8.80;99.90
12053;DHT22;6087;48.982;12.064;2023-02-24T01:03:26;8.80;99.90
12053;DHT22;6087;48.982;12.064;2023-02-24T01:05:55;8.80;99.90
12053;DHT22;6087;48.982;12.064;2023-02-24T01:08:22;8.70;99.90
12053;DHT22;6087;48.982;12.064;2023-02-24T01:10:56;8.60;99.90
12053;DHT22;6087;48.982;12.064;2023-02-24T01:13:37;8.60;99.90
12053;DHT22;6087;48.982;12.064;2023-02-24T01:16:04;8.70;99.90
12053;DHT22;6087;48.982;12.064;2023-02-24T01:18:32;8.60;99.90
12053;DHT22;6087;48.982;12.064;2023-02-24T01:21:00;8.60;99.90
12053;DHT22;6087;48.982;12.064;2023-02-24T01:23:27;8.60;99.90
12053;DHT22;6087;48.982;12.064;2023-02-24T01:25:54;8.60;99.90
12053;DHT22;6087;48.982;12.064;2023-02-24T01:28:24;8.70;99.90
12053;DHT22;6087;48.982;12.064;2023-02-24T01:30:51;8.60;99.90
12053;DHT22;6087;48.982;12.064;2023-02-24T01:33:19;8.60;99.90
12053;DHT22;6087;48.982;12.064;2023-02-24T01:35:46;8.50;99.90
12053;DHT22;6087;48.982;12.064;2023-02-24T01:38:14;8.50;99.90
12053;DHT22;6087;48.982;12.064;2023-02-24T01:40:55;8.50;99.90
12053;DHT22;6087;48.982;12.064;2023-02-24T01:43:22;8.50;99.90
12053;DHT22;6087;48.982;12.064;2023-02-24T01:45:52;8.50;99.90
12053;DHT22;6087;48.982;12.064;2023-02-24T01:48:23;8.60;99.90
12053;DHT22;6087;48.982;12.064;2023-02-24T01:50:50;8.60;99.90
12053;DHT22;6087;48.982;12.064;2023-02-24T01:53:19;8.50;99.90
12053;DHT22;6087;48.982;12.064;2023-02-24T01:55:47;8.60;99.90
12053;DHT22;6087;48.982;12.064;2023-02-24T01:58:22;8.50;99.90
12053;DHT22;6087;48.982;12.064;2023-02-24T02:00:50;8.50;99.90
12053;DHT22;6087;48.982;12.064;2023-02-24T02:03:21;8.50;99.90
12053;DHT22;6087;48.982;12.064;2023-02-24T02:05:50;8.40;99.90
12053;DHT22;6087;48.982;12.064;2023-02-24T02:08:25;8.40;99.90
12053;DHT22;6087;48.982;12.064;2023-02-24T02:10:54;8.40;99.90
12053;DHT22;6087;48.982;12.064;2023-02-24T02:13:26;8.40;99.90
12053;DHT22;6087;48.982;12.064;2023-02-24T02:16:04;8.30;99.90
12053;DHT22;6087;48.982;12.064;2023-02-24T02:18:43;8.30;99.90
12053;DHT22;6087;48.982;12.064;2023-02-24T02:21:35;8.40;99.90
12053;DHT22;6087;48.982;12.064;2023-02-24T02:24:47;8.30;99.90
12053;DHT22;6087;48.982;12.064;2023-02-24T02:27:49;8.30;99.90
12053;DHT22;6087;48.982;12.064;2023-02-24T02:30:45;8.20;99.90
12053;DHT22;6087;48.982;12.064;2023-02-24T02:33:40;8.20;99.90
12053;DHT22;6087;48.982;12.064;2023-02-24T02:36:12;8.10;99.90
12053;DHT22;6087;48.982;12.064;2023-02-24T02:38:51;8.10;99.90
12053;DHT22;6087;48.982;12.064;2023-02-24T02:41:23;8.10;99.90
12053;DHT22;6087;48.982;12.064;2023-02-24T02:44:01;8.10;99.90
12053;DHT22;6087;48.982;12.064;2023-02-24T02:46:32;8.20;99.90
12053;DHT22;6087;48.982;12.064;2023-02-24T02:49:09;8.10;99.90
12053;DHT22;6087;48.982;12.064;2023-02-24T02:51:40;8.10;99.90
12053;DHT22;6087;48.982;12.064;2023-02-24T02:54:14;8.20;99.90
12053;DHT22;6087;48.982;12.064;2023-02-24T02:56:46;8.10;99.90
12053;DHT22;6087;48.982;12.064;2023-02-24T02:59:16;8.10;99.90
12053;DHT22;6087;48.982;12.064;2023-02-24T03:01:49;8.10;99.90
12053;DHT22;6087;48.982;12.064;2023-02-24T03:04:22;8.20;99.90
12053;DHT22;6087;48.982;12.064;2023-02-24T03:06:54;8.10;99.90
12053;DHT22;6087;48.982;12.064;2023-02-24T03:09:26;8.10;99.90
12053;DHT22;6087;48.982;12.064;2023-02-24T03:11:57;8.20;99.90
12053;DHT22;6087;48.982;12.064;2023-02-24T03:14:30;8.20;99.90
12053;DHT22;6087;48.982;12.064;2023-02-24T03:17:00;8.10;99.90
12053;DHT22;6087;48.982;12.064;2023-02-24T03:19:33;8.10;99.90
12053;DHT22;6087;48.982;12.064;2023-02-24T03:22:06;8.10;99.90
12053;DHT22;6087;48.982;12.064;2023-02-24T03:24:36;8.10;99.90
12053;DHT22;6087;48.982;12.064;2023-02-24T03:27:07;8.10;99.90
12053;DHT22;6087;48.982;12.064;2023-02-24T03:29:38;8.10;99.90
12053;DHT22;6087;48.982;12.064;2023-02-24T03:32:11;8.10;99.90
12053;DHT22;6087;48.982;12.064;2023-02-24T03:34:47;8.10;99.90
12053;DHT22;6087;48.982;12.064;2023-02-24T03:37:16;8.10;99.90
12053;DHT22;6087;48.982;12.064;2023-02-24T03:39:53;8.00;99.90
12053;DHT22;6087;48.982;12.064;2023-02-24T03:42:30;8.00;99.90
12053;DHT22;6087;48.982;12.064;2023-02-24T03:44:58;8.00;99.90
12053;DHT22;6087;48.982;12.064;2023-02-24T03:47:25;8.00;99.90
12053;DHT22;6087;48.982;12.064;2023-02-24T03:49:54;8.00;99.90
12053;DHT22;6087;48.982;12.064;2023-02-24T03:52:28;8.00;99.90
12053;DHT22;6087;48.982;12.064;2023-02-24T03:55:15;8.10;99.90
12053;DHT22;6087;48.982;12.064;2023-02-24T03:57:52;8.10;99.90
12053;DHT22;6087;48.982;12.064;2023-02-24T04:00:35;8.00;99.90
12053;DHT22;6087;48.982;12.064;2023-02-24T04:03:11;7.80;99.90
12053;DHT22;6087;48.982;12.064;2023-02-24T04:05:46;7.80;99.90
12053;DHT22;6087;48.982;12.064;2023-02-24T04:08:17;7.80;99.90
12053;DHT22;6087;48.982;12.064;2023-02-24T04:10:50;7.80;99.90
12053;DHT22;6087;48.982;12.064;2023-02-24T04:13:25;7.90;99.90
12053;DHT22;6087;48.982;12.064;2023-02-24T04:16:00;8.00;99.90
12053;DHT22;6087;48.982;12.064;2023-02-24T04:18:30;8.10;99.90
12053;DHT22;6087;48.982;12.064;2023-02-24T04:21:02;8.20;99.90
12053;DHT22;6087;48.982;12.064;2023-02-24T04:23:31;8.10;99.90
12053;DHT22;6087;48.982;12.064;2023-02-24T04:25:59;8.10;99.90
12053;DHT22;6087;48.982;12.064;2023-02-24T04:28:28;8.20;99.90
12053;DHT22;6087;48.982;12.064;2023-02-24T04:31:01;8.20;99.90
12053;DHT22;6087;48.982;12.064;2023-02-24T04:33:31;8.10;99.90
12053;DHT22;6087;48.982;12.064;2023-02-24T04:35:59;8.00;99.90
12053;DHT22;6087;48.982;12.064;2023-02-24T04:38:32;8.00;99.90
12053;DHT22;6087;48.982;12.064;2023-02-24T04:40:59;8.00;99.90
12053;DHT22;6087;48.982;12.064;2023-02-24T04:43:27;8.00;99.90
12053;DHT22;6087;48.982;12.064;2023-02-24T04:46:02;8.10;99.90
12053;DHT22;6087;48.982;12.064;2023-02-24T04:48:32;8.00;99.90
12053;DHT22;6087;48.982;12.064;2023-02-24T04:51:01;8.00;99.90
12053;DHT22;6087;48.982;12.064;2023-02-24T04:53:31;8.00;99.90
12053;DHT22;6087;48.982;12.064;2023-02-24T04:56:01;8.00;99.90
12053;DHT22;6087;48.982;12.064;2023-02-24T04:58:33;8.00;99.90
12053;DHT22;6087;48.982;12.064;2023-02-24T05:01:05;8.00;99.90
12053;DHT22;6087;48.982;12.064;2023-02-24T05:03:35;8.00;99.90
12053;DHT22;6087;48.982;12.064;2023-02-24T05:06:04;7.90;99.90
12053;DHT22;6087;48.982;12.064;2023-02-24T05:08:33;7.90;99.90
12053;DHT22;6087;48.982;12.064;2023-02-24T05:11:00;7.90;99.90
12053;DHT22;6087;48.982;12.064;2023-02-24T05:13:29;7.90;99.90
12053;DHT22;6087;48.982;12.064;2023-02-24T05:16:02;7.90;99.90
12053;DHT22;6087;48.982;12.064;2023-02-24T05:18:30;7.90;99.90
12053;DHT22;6087;48.982;12.064;2023-02-24T05:21:05;7.90;99.90
12053;DHT22;6087;48.982;12.064;2023-02-24T05:23:52;7.80;99.90
12053;DHT22;6087;48.982;12.064;2023-02-24T05:26:21;7.80;99.90
12053;DHT22;6087;48.982;12.064;2023-02-24T05:28:51;7.80;99.90
12053;DHT22;6087;48.982;12.064;2023-02-24T05:31:20;7.80;99.90
12053;DHT22;6087;48.982;12.064;2023-02-24T05:33:51;7.80;99.90
12053;DHT22;6087;48.982;12.064;2023-02-24T05:36:22;7.80;99.90
12053;DHT22;6087;48.982;12.064;2023-02-24T05:38:51;7.80;99.90
12053;DHT22;6087;48.982;12.064;2023-02-24T05:41:23;7.80;99.90
12053;DHT22;6087;48.982;12.064;2023-02-24T05:43:57;7.90;99.90
12053;DHT22;6087;48.982;12.064;2023-02-24T05:46:28;8.00;99.90
12053;DHT22;6087;48.982;12.064;2023-02-24T05:48:58;8.00;99.90
12053;DHT22;6087;48.982;12.064;2023-02-24T05:51:28;8.00;99.90
12053;DHT22;6087;48.982;12.064;2023-02-24T05:54:00;7.90;99.90
12053;DHT22;6087;48.982;12.064;2023-02-24T05:56:30;8.00;99.90
12053;DHT22;6087;48.982;12.064;2023-02-24T05:58:58;8.00;99.90
12053;DHT22;6087;48.982;12.064;2023-02-24T06:01:27;7.90;99.90
12053;DHT22;6087;48.982;12.064;2023-02-24T06:03:58;7.90;99.90
12053;DHT22;6087;48.982;12.064;2023-02-24T06:06:32;7.90;99.90
12053;DHT22;6087;48.982;12.064;2023-02-24T06:09:01;8.00;99.90
12053;DHT22;6087;48.982;12.064;2023-02-24T06:11:35;8.00;99.90
12053;DHT22;6087;48.982;12.064;2023-02-24T06:14:03;8.00;99.90
12053;DHT22;6087;48.982;12.064;2023-02-24T06:16:32;8.00;99.90
12053;DHT22;6087;48.982;12.064;2023-02-24T06:18:59;7.90;99.90
12053;DHT22;6087;48.982;12.064;2023-02-24T06:21:37;7.90;99.90
12053;DHT22;6087;48.982;12.064;2023-02-24T06:24:09;8.00;99.90
12053;DHT22;6087;48.982;12.064;2023-02-24T06:26:39;8.00;99.90
12053;DHT22;6087;48.982;12.064;2023-02-24T06:29:10;8.10;99.90
12053;DHT22;6087;48.982;12.064;2023-02-24T06:31:37;8.10;99.90
12053;DHT22;6087;48.982;12.064;2023-02-24T06:34:06;8.20;99.90
12053;DHT22;6087;48.982;12.064;2023-02-24T06:36:37;8.20;99.90
12053;DHT22;6087;48.982;12.064;2023-02-24T06:39:04;8.10;99.90
12053;DHT22;6087;48.982;12.064;2023-02-24T06:41:33;8.10;99.90
12053;DHT22;6087;48.982;12.064;2023-02-24T06:44:02;8.00;99.90
12053;DHT22;6087;48.982;12.064;2023-02-24T06:46:29;8.00;99.90
12053;DHT22;6087;48.982;12.064;2023-02-24T06:48:56;8.00;99.90
12053;DHT22;6087;48.982;12.064;2023-02-24T06:51:23;8.00;99.90
12053;DHT22;6087;48.982;12.064;2023-02-24T06:53:56;8.00;99.90
12053;DHT22;6087;48.982;12.064;2023-02-24T06:56:24;8.00;99.90
12053;DHT22;6087;48.982;12.064;2023-02-24T06:58:53;7.90;99.90
12053;DHT22;6087;48.982;12.064;2023-02-24T07:01:23;8.00;99.90
12053;DHT22;6087;48.982;12.064;2023-02-24T07:03:52;7.90;99.90
12053;DHT22;6087;48.982;12.064;2023-02-24T07:06:43;7.90;99.90
12053;DHT22;6087;48.982;12.064;2023-02-24T07:09:13;7.90;99.90
12053;DHT22;6087;48.982;12.064;2023-02-24T07:11:42;7.90;99.90
12053;DHT22;6087;48.982;12.064;2023-02-24T07:14:11;7.80;99.90
12053;DHT22;6087;48.982;12.064;2023-02-24T07:16:39;7.80;99.90
12053;DHT22;6087;48.982;12.064;2023-02-24T07:19:11;7.80;99.90
12053;DHT22;6087;48.982;12.064;2023-02-24T07:21:40;7.80;99.90
12053;DHT22;6087;48.982;12.064;2023-02-24T07:24:13;7.90;99.90
12053;DHT22;6087;48.982;12.064;2023-02-24T07:26:54;7.90;99.90
12053;DHT22;6087;48.982;12.064;2023-02-24T07:29:22;7.90;99.90
12053;DHT22;6087;48.982;12.064;2023-02-24T07:31:49;7.90;99.90
12053;DHT22;6087;48.982;12.064;2023-02-24T07:34:20;7.90;99.90
12053;DHT22;6087;48.982;12.064;2023-02-24T07:36:49;7.80;99.90
12053;DHT22;6087;48.982;12.064;2023-02-24T07:39:18;7.80;99.90
12053;DHT22;6087;48.982;12.064;2023-02-24T07:41:47;7.90;99.90
12053;DHT22;6087;48.982;12.064;2023-02-24T07:44:15;7.90;99.90
12053;DHT22;6087;48.982;12.064;2023-02-24T07:46:42;8.00;99.90
12053;DHT22;6087;48.982;12.064;2023-02-24T07:49:12;8.00;99.90
12053;DHT22;6087;48.982;12.064;2023-02-24T07:51:40;8.00;99.90
12053;DHT22;6087;48.982;12.064;2023-02-24T07:54:09;8.00;99.90
12053;DHT22;6087;48.982;12.064;2023-02-24T07:56:41;8.00;99.90
12053;DHT22;6087;48.982;12.064;2023-02-24T07:59:14;8.00;99.90
12053;DHT22;6087;48.982;12.064;2023-02-24T08:01:43;8.00;99.90
12053;DHT22;6087;48.982;12.064;2023-02-24T08:04:17;8.00;99.90
12053;DHT22;6087;48.982;12.064;2023-02-24T08:06:44;8.00;99.90
12053;DHT22;6087;48.982;12.064;2023-02-24T08:09:16;8.10;99.90
12053;DHT22;6087;48.982;12.064;2023-02-24T08:11:48;8.10;99.90
12053;DHT22;6087;48.982;12.064;2023-02-24T08:14:17;8.00;99.90
12053;DHT22;6087;48.982;12.064;2023-02-24T08:16:49;8.00;99.90
12053;DHT22;6087;48.982;12.064;2023-02-24T08:19:18;7.90;99.90
12053;DHT22;6087;48.982;12.064;2023-02-24T08:21:47;7.90;99.90
12053;DHT22;6087;48.982;12.064;2023-02-24T08:24:16;8.00;99.90
12053;DHT22;6087;48.982;12.064;2023-02-24T08:26:46;7.90;99.90
12053;DHT22;6087;48.982;12.064;2023-02-24T08:29:31;8.00;99.90
12053;DHT22;6087;48.982;12.064;2023-02-24T08:32:04;8.00;99.90
12053;DHT22;6087;48.982;12.064;2023-02-24T08:34:33;8.10;99.90
12053;DHT22;6087;48.982;12.064;2023-02-24T08:37:00;8.10;99.90
12053;DHT22;6087;48.982;12.064;2023-02-24T08:39:27;8.10;99.90
12053;DHT22;6087;48.982;12.064;2023-02-24T08:41:57;8.10;99.90
12053;DHT22;6087;48.982;12.064;2023-02-24T08:44:24;8.20;99.90
12053;DHT22;6087;48.982;12.064;2023-02-24T08:46:53;8.20;99.90
12053;DHT22;6087;48.982;12.064;2023-02-24T08:49:22;8.20;99.90
12053;DHT22;6087;48.982;12.064;2023-02-24T08:51:50;8.30;99.90
12053;DHT22;6087;48.982;12.064;2023-02-24T08:54:19;8.30;99.90
12053;DHT22;6087;48.982;12.064;2023-02-24T08:56:53;8.30;99.90
12053;DHT22;6087;48.982;12.064;2023-02-24T08:59:24;8.30;99.90
12053;DHT22;6087;48.982;12.064;2023-02-24T09:02:04;8.40;99.90
12053;DHT22;6087;48.982;12.064;2023-02-24T09:04:44;8.50;99.90
12053;DHT22;6087;48.982;12.064;2023-02-24T09:07:15;8.60;99.90
12053;DHT22;6087;48.982;12.064;2023-02-24T09:09:42;8.60;99.90
12053;DHT22;6087;48.982;12.064;2023-02-24T09:12:11;8.60;99.90
12053;DHT22;6087;48.982;12.064;2023-02-24T09:14:48;8.70;99.90
12053;DHT22;6087;48.982;12.064;2023-02-24T09:17:15;8.70;99.90
12053;DHT22;6087;48.982;12.064;2023-02-24T09:19:47;8.70;99.90
12053;DHT22;6087;48.982;12.064;2023-02-24T09:22:40;8.80;99.90
12053;DHT22;6087;48.982;12.064;2023-02-24T09:25:24;8.70;99.90
12053;DHT22;6087;48.982;12.064;2023-02-24T09:28:06;8.80;99.90
12053;DHT22;6087;48.982;12.064;2023-02-24T09:30:37;8.70;99.90
12053;DHT22;6087;48.982;12.064;2023-02-24T09:33:17;8.80;99.90
12053;DHT22;6087;48.982;12.064;2023-02-24T09:35:51;8.90;99.90
12053;DHT22;6087;48.982;12.064;2023-02-24T09:38:25;8.90;99.90
12053;DHT22;6087;48.982;12.064;2023-02-24T09:41:23;8.90;99.90
12053;DHT22;6087;48.982;12.064;2023-02-24T09:44:04;8.90;99.90
12053;DHT22;6087;48.982;12.064;2023-02-24T09:46:38;8.90;99.90
12053;DHT22;6087;48.982;12.064;2023-02-24T09:49:13;8.80;99.90
12053;DHT22;6087;48.982;12.064;2023-02-24T09:51:42;8.80;99.90
12053;DHT22;6087;48.982;12.064;2023-02-24T09:54:14;8.90;99.90
12053;DHT22;6087;48.982;12.064;2023-02-24T09:56:48;8.90;99.90
12053;DHT22;6087;48.982;12.064;2023-02-24T09:59:25;8.90;99.90
12053;DHT22;6087;48.982;12.064;2023-02-24T10:02:09;8.90;99.90
12053;DHT22;6087;48.982;12.064;2023-02-24T10:04:57;8.90;99.90
12053;DHT22;6087;48.982;12.064;2023-02-24T10:07:34;8.90;99.90
12053;DHT22;6087;48.982;12.064;2023-02-24T10:10:09;8.80;99.90
12053;DHT22;6087;48.982;12.064;2023-02-24T10:12:48;8.80;99.90
12053;DHT22;6087;48.982;12.064;2023-02-24T10:15:19;8.80;99.90
12053;DHT22;6087;48.982;12.064;2023-02-24T10:18:26;8.90;99.90
12053;DHT22;6087;48.982;12.064;2023-02-24T10:20:58;8.90;99.90
12053;DHT22;6087;48.982;12.064;2023-02-24T10:23:31;9.00;99.90
12053;DHT22;6087;48.982;12.064;2023-02-24T10:26:04;8.90;99.90
12053;DHT22;6087;48.982;12.064;2023-02-24T10:28:42;8.80;99.90
12053;DHT22;6087;48.982;12.064;2023-02-24T10:31:22;8.80;99.90
12053;DHT22;6087;48.982;12.064;2023-02-24T10:34:00;8.80;99.90
12053;DHT22;6087;48.982;12.064;2023-02-24T10:36:30;8.80;99.90
12053;DHT22;6087;48.982;12.064;2023-02-24T10:39:03;8.70;99.90
12053;DHT22;6087;48.982;12.064;2023-02-24T10:41:53;8.70;99.90
12053;DHT22;6087;48.982;12.064;2023-02-24T10:44:23;8.70;99.90
12053;DHT22;6087;48.982;12.064;2023-02-24T10:47:00;8.70;99.90
12053;DHT22;6087;48.982;12.064;2023-02-24T10:49:41;8.70;99.90
12053;DHT22;6087;48.982;12.064;2023-02-24T10:52:22;8.70;99.90
12053;DHT22;6087;48.982;12.064;2023-02-24T10:55:22;8.70;99.90
12053;DHT22;6087;48.982;12.064;2023-02-24T10:58:02;8.70;99.90
12053;DHT22;6087;48.982;12.064;2023-02-24T11:00:44;8.60;99.90
12053;DHT22;6087;48.982;12.064;2023-02-24T11:03:26;8.60;99.90
12053;DHT22;6087;48.982;12.064;2023-02-24T11:06:18;8.50;99.90
12053;DHT22;6087;48.982;12.064;2023-02-24T11:09:02;8.60;99.90
12053;DHT22;6087;48.982;12.064;2023-02-24T11:11:44;8.60;99.90
12053;DHT22;6087;48.982;12.064;2023-02-24T11:14:33;8.60;99.90
12053;DHT22;6087;48.982;12.064;2023-02-24T11:17:23;8.70;99.90
12053;DHT22;6087;48.982;12.064;2023-02-24T11:19:57;8.60;99.90
12053;DHT22;6087;48.982;12.064;2023-02-24T11:22:29;8.60;99.90
12053;DHT22;6087;48.982;12.064;2023-02-24T11:25:05;8.60;99.90
12053;DHT22;6087;48.982;12.064;2023-02-24T11:27:33;8.70;99.90
12053;DHT22;6087;48.982;12.064;2023-02-24T11:30:13;8.70;99.90
12053;DHT22;6087;48.982;12.064;2023-02-24T11:32:57;8.80;99.90
12053;DHT22;6087;48.982;12.064;2023-02-24T11:35:32;8.80;99.90
12053;DHT22;6087;48.982;12.064;2023-02-24T11:38:13;8.80;99.90
12053;DHT22;6087;48.982;12.064;2023-02-24T11:40:58;8.70;99.90
12053;DHT22;6087;48.982;12.064;2023-02-24T11:43:38;8.80;99.90
12053;DHT22;6087;48.982;12.064;2023-02-24T11:46:10;8.80;99.90
12053;DHT22;6087;48.982;12.064;2023-02-24T11:48:43;8.90;99.90
12053;DHT22;6087;48.982;12.064;2023-02-24T11:51:13;8.90;99.90
12053;DHT22;6087;48.982;12.064;2023-02-24T11:53:48;8.90;99.90
12053;DHT22;6087;48.982;12.064;2023-02-24T11:56:20;9.00;99.90
12053;DHT22;6087;48.982;12.064;2023-02-24T11:58:52;9.00;99.90
12053;DHT22;6087;48.982;12.064;2023-02-24T12:01:26;9.00;99.90
12053;DHT22;6087;48.982;12.064;2023-02-24T12:04:00;9.00;99.90
12053;DHT22;6087;48.982;12.064;2023-02-24T12:06:36;8.90;86.40
12053;DHT22;6087;48.982;12.064;2023-02-24T12:09:11;8.90;99.90
12053;DHT22;6087;48.982;12.064;2023-02-24T12:11:45;8.90;99.90
12053;DHT22;6087;48.982;12.064;2023-02-24T12:14:32;9.00;99.90
12053;DHT22;6087;48.982;12.064;2023-02-24T12:17:11;9.00;94.60
12053;DHT22;6087;48.982;12.064;2023-02-24T12:19:52;9.00;93.50
12053;DHT22;6087;48.982;12.064;2023-02-24T12:22:24;9.00;94.70
12053;DHT22;6087;48.982;12.064;2023-02-24T12:24:54;8.90;85.70
12053;DHT22;6087;48.982;12.064;2023-02-24T12:27:33;8.90;93.20
12053;DHT22;6087;48.982;12.064;2023-02-24T12:30:28;8.90;82.50
12053;DHT22;6087;48.982;12.064;2023-02-24T12:33:12;8.90;96.30
12053;DHT22;6087;48.982;12.064;2023-02-24T12:35:46;9.00;89.10
12053;DHT22;6087;48.982;12.064;2023-02-24T12:38:29;8.90;86.40
12053;DHT22;6087;48.982;12.064;2023-02-24T12:41:12;8.90;94.80
12053;DHT22;6087;48.982;12.064;2023-02-24T12:43:44;8.90;99.10
12053;DHT22;6087;48.982;12.064;2023-02-24T12:46:22;8.80;98.40
12053;DHT22;6087;48.982;12.064;2023-02-24T12:49:22;8.80;99.90
12053;DHT22;6087;48.982;12.064;2023-02-24T12:52:01;8.90;99.80
12053;DHT22;6087;48.982;12.064;2023-02-24T12:54:39;8.90;92.90
12053;DHT22;6087;48.982;12.064;2023-02-24T12:57:14;8.90;79.10
12053;DHT22;6087;48.982;12.064;2023-02-24T12:59:44;8.80;77.70
12053;DHT22;6087;48.982;12.064;2023-02-24T13:02:20;8.80;95.20
12053;DHT22;6087;48.982;12.064;2023-02-24T13:04:55;8.80;76.70
12053;DHT22;6087;48.982;12.064;2023-02-24T13:07:50;8.80;90.20
12053;DHT22;6087;48.982;12.064;2023-02-24T13:10:28;8.80;91.30
12053;DHT22;6087;48.982;12.064;2023-02-24T13:13:04;8.70;85.40
12053;DHT22;6087;48.982;12.064;2023-02-24T13:15:35;8.80;76.90
12053;DHT22;6087;48.982;12.064;2023-02-24T13:18:05;8.70;90.00
12053;DHT22;6087;48.982;12.064;2023-02-24T13:20:34;8.70;99.50
12053;DHT22;6087;48.982;12.064;2023-02-24T13:23:18;8.80;99.90
12053;DHT22;6087;48.982;12.064;2023-02-24T13:25:50;8.80;99.90
12053;DHT22;6087;48.982;12.064;2023-02-24T13:28:24;8.90;99.90
12053;DHT22;6087;48.982;12.064;2023-02-24T13:31:14;8.80;99.90
12053;DHT22;6087;48.982;12.064;2023-02-24T13:33:48;8.80;99.90
12053;DHT22;6087;48.982;12.064;2023-02-24T13:36:19;8.80;99.90
12053;DHT22;6087;48.982;12.064;2023-02-24T13:38:48;8.80;99.90
12053;DHT22;6087;48.982;12.064;2023-02-24T13:41:39;8.80;99.90
12053;DHT22;6087;48.982;12.064;2023-02-24T13:44:25;8.90;99.90
12053;DHT22;6087;48.982;12.064;2023-02-24T13:47:25;8.80;99.90
12053;DHT22;6087;48.982;12.064;2023-02-24T13:50:16;8.80;99.90
12053;DHT22;6087;48.982;12.064;2023-02-24T13:52:57;8.80;99.90
12053;DHT22;6087;48.982;12.064;2023-02-24T13:55:38;8.70;99.90
12053;DHT22;6087;48.982;12.064;2023-02-24T13:58:22;8.80;99.90
12053;DHT22;6087;48.982;12.064;2023-02-24T14:01:05;8.70;99.90
12053;DHT22;6087;48.982;12.064;2023-02-24T14:03:34;8.70;99.90
12053;DHT22;6087;48.982;12.064;2023-02-24T14:06:02;8.70;99.90
12053;DHT22;6087;48.982;12.064;2023-02-24T14:08:36;8.80;99.90
12053;DHT22;6087;48.982;12.064;2023-02-24T14:11:06;8.80;99.90
12053;DHT22;6087;48.982;12.064;2023-02-24T14:13:36;8.80;99.90
12053;DHT22;6087;48.982;12.064;2023-02-24T14:16:08;8.80;99.90
12053;DHT22;6087;48.982;12.064;2023-02-24T14:18:35;8.80;99.90
12053;DHT22;6087;48.982;12.064;2023-02-24T14:21:03;8.90;99.90
12053;DHT22;6087;48.982;12.064;2023-02-24T14:23:31;9.80;94.90
12053;DHT22;6087;48.982;12.064;2023-02-24T14:26:00;10.80;1.00
12053;DHT22;6087;48.982;12.064;2023-02-24T14:28:30;11.00;1.00
12053;DHT22;6087;48.982;12.064;2023-02-24T14:30:59;11.60;1.00
12053;DHT22;6087;48.982;12.064;2023-02-24T14:33:30;12.10;1.00
12053;DHT22;6087;48.982;12.064;2023-02-24T14:35:59;11.90;1.00
12053;DHT22;6087;48.982;12.064;2023-02-24T14:38:32;12.00;1.00
12053;DHT22;6087;48.982;12.064;2023-02-24T14:41:00;12.10;1.00
12053;DHT22;6087;48.982;12.064;2023-02-24T14:43:27;12.20;1.00
12053;DHT22;6087;48.982;12.064;2023-02-24T14:45:55;12.50;1.00
12053;DHT22;6087;48.982;12.064;2023-02-24T14:48:24;12.60;99.90
12053;DHT22;6087;48.982;12.064;2023-02-24T14:50:56;12.40;1.00
12053;DHT22;6087;48.982;12.064;2023-02-24T14:53:25;12.10;1.00
12053;DHT22;6087;48.982;12.064;2023-02-24T14:55:59;11.80;1.00
12053;DHT22;6087;48.982;12.064;2023-02-24T14:58:28;11.60;1.00
12053;DHT22;6087;48.982;12.064;2023-02-24T15:00:59;11.40;1.00
12053;DHT22;6087;48.982;12.064;2023-02-24T15:03:38;11.20;1.00
12053;DHT22;6087;48.982;12.064;2023-02-24T15:06:12;10.80;1.00
12053;DHT22;6087;48.982;12.064;2023-02-24T15:08:44;10.30;1.00
12053;DHT22;6087;48.982;12.064;2023-02-24T15:11:21;10.20;1.00
12053;DHT22;6087;48.982;12.064;2023-02-24T15:13:51;10.00;1.00
12053;DHT22;6087;48.982;12.064;2023-02-24T15:16:21;9.80;1.00
12053;DHT22;6087;48.982;12.064;2023-02-24T15:18:49;9.60;1.00
12053;DHT22;6087;48.982;12.064;2023-02-24T15:21:26;9.60;5.60
12053;DHT22;6087;48.982;12.064;2023-02-24T15:23:58;9.50;12.70
12053;DHT22;6087;48.982;12.064;2023-02-24T15:26:27;9.40;24.80
12053;DHT22;6087;48.982;12.064;2023-02-24T15:29:00;9.40;23.70
12053;DHT22;6087;48.982;12.064;2023-02-24T15:31:28;9.40;36.40
12053;DHT22;6087;48.982;12.064;2023-02-24T15:33:56;9.50;32.00
12053;DHT22;6087;48.982;12.064;2023-02-24T15:36:29;9.40;50.10
12053;DHT22;6087;48.982;12.064;2023-02-24T15:39:00;9.40;45.00
12053;DHT22;6087;48.982;12.064;2023-02-24T15:41:37;9.40;40.90
12053;DHT22;6087;48.982;12.064;2023-02-24T15:44:05;9.40;41.40
12053;DHT22;6087;48.982;12.064;2023-02-24T15:46:34;9.40;43.10
12053;DHT22;6087;48.982;12.064;2023-02-24T15:49:03;9.40;47.00
12053;DHT22;6087;48.982;12.064;2023-02-24T15:51:35;9.40;48.70
12053;DHT22;6087;48.982;12.064;2023-02-24T15:54:04;9.40;38.80
12053;DHT22;6087;48.982;12.064;2023-02-24T15:56:33;9.30;42.00
12053;DHT22;6087;48.982;12.064;2023-02-24T15:59:01;9.20;59.40
12053;DHT22;6087;48.982;12.064;2023-02-24T16:01:28;9.20;56.00
12053;DHT22;6087;48.982;12.064;2023-02-24T16:03:57;9.20;57.70
12053;DHT22;6087;48.982;12.064;2023-02-24T16:06:25;9.10;55.40
12053;DHT22;6087;48.982;12.064;2023-02-24T16:08:54;9.00;62.70
12053;DHT22;6087;48.982;12.064;2023-02-24T16:11:25;8.90;78.00
12053;DHT22;6087;48.982;12.064;2023-02-24T16:13:55;8.90;84.20
12053;DHT22;6087;48.982;12.064;2023-02-24T16:16:23;8.90;77.40
12053;DHT22;6087;48.982;12.064;2023-02-24T16:18:51;8.90;82.10
12053;DHT22;6087;48.982;12.064;2023-02-24T16:21:18;8.90;73.60
12053;DHT22;6087;48.982;12.064;2023-02-24T16:23:45;8.90;67.30
12053;DHT22;6087;48.982;12.064;2023-02-24T16:26:17;8.90;64.30